createdAt,value
2019-02-24T00:01:54.914Z,1015.89
2019-02-24T00:03:15.833Z,1015.90
2019-02-24T00:03:56.754Z,1015.86
2019-02-24T00:05:01.858Z,1015.87
2019-02-24T00:05:56.953Z,1015.88
2019-02-24T00:06:55.706Z,1015.89
2019-02-24T00:08:05.897Z,1015.91
2019-02-24T00:08:57.873Z,1015.89
2019-02-24T00:09:56.301Z,1015.85
2019-02-24T00:10:54.858Z,1015.87
2019-02-24T00:11:56.320Z,1015.85
2019-02-24T00:12:54.586Z,1015.85
2019-02-24T00:13:55.362Z,1015.85
2019-02-24T00:15:05.380Z,1015.76
2019-02-24T00:15:55.731Z,1015.78
2019-02-24T00:16:56.880Z,1015.69
2019-02-24T00:18:16.191Z,1015.72
2019-02-24T00:19:15.628Z,1015.70
2019-02-24T00:19:56.204Z,1015.64
2019-02-24T00:21:54.427Z,1015.66
2019-02-24T00:25:17.924Z,1015.65
2019-02-24T00:26:16.062Z,1015.68
2019-02-24T00:28:16.854Z,1015.68
2019-02-24T00:29:15.914Z,1015.69
2019-02-24T00:30:15.104Z,1015.70
2019-02-24T00:31:16.808Z,1015.75
2019-02-24T00:32:15.202Z,1015.82
2019-02-24T00:33:17.910Z,1015.89
2019-02-24T00:34:15.357Z,1015.95
2019-02-24T00:35:16.023Z,1015.93
2019-02-24T00:36:15.144Z,1015.99
2019-02-24T00:37:36.333Z,1015.94
2019-02-24T00:38:15.970Z,1015.91
2019-02-24T00:39:14.969Z,1015.91
2019-02-24T00:40:15.032Z,1015.89
2019-02-24T00:41:19.904Z,1015.87
2019-02-24T00:42:15.013Z,1015.90
2019-02-24T00:44:53.608Z,1015.86
2019-02-24T00:45:35.423Z,1015.81
2019-02-24T00:47:31.320Z,1015.83
2019-02-24T00:48:28.755Z,1015.88
2019-02-24T00:49:37.426Z,1015.95
2019-02-24T00:56:13.550Z,1015.77
2019-02-24T00:57:01.686Z,1015.77
2019-02-24T01:00:16.776Z,1015.85
2019-02-24T01:01:10.969Z,1015.81
2019-02-24T01:02:08.895Z,1015.80
2019-02-24T01:03:18.990Z,1015.75
2019-02-24T01:06:32.453Z,1015.71
2019-02-24T01:07:20.708Z,1015.78
2019-02-24T01:10:42.471Z,1015.75
2019-02-24T01:11:42.322Z,1015.76
2019-02-24T01:12:42.406Z,1015.75
2019-02-24T01:13:43.102Z,1015.73
2019-02-24T01:14:44.122Z,1015.71
2019-02-24T01:16:03.195Z,1015.77
2019-02-24T01:16:41.964Z,1015.71
2019-02-24T01:17:44.964Z,1015.69
2019-02-24T01:18:42.003Z,1015.70
2019-02-24T01:19:41.965Z,1015.75
2019-02-24T01:20:42.048Z,1015.68
2019-02-24T01:21:42.055Z,1015.71
2019-02-24T01:22:46.496Z,1015.71
2019-02-24T01:23:42.012Z,1015.69
2019-02-24T01:24:41.993Z,1015.71
2019-02-24T01:25:42.035Z,1015.66
2019-02-24T01:27:41.975Z,1015.63
2019-02-24T01:28:42.638Z,1015.62
2019-02-24T01:29:44.543Z,1015.61
2019-02-24T01:30:43.383Z,1015.56
2019-02-24T01:31:44.506Z,1015.48
2019-02-24T01:32:41.763Z,1015.50
2019-02-24T01:33:41.809Z,1015.51
2019-02-24T01:38:14.606Z,1015.45
2019-02-24T01:39:13.168Z,1015.42
2019-02-24T01:40:03.859Z,1015.47
2019-02-24T01:41:03.082Z,1015.45
2019-02-24T01:42:02.159Z,1015.42
2019-02-24T01:43:02.135Z,1015.42
2019-02-24T01:44:02.037Z,1015.44
2019-02-24T01:46:03.163Z,1015.44
2019-02-24T01:47:02.031Z,1015.42
2019-02-24T01:48:02.962Z,1015.42
2019-02-24T01:49:08.522Z,1015.41
2019-02-24T01:50:02.066Z,1015.44
2019-02-24T01:51:03.835Z,1015.45
2019-02-24T01:52:08.410Z,1015.45
2019-02-24T01:53:03.458Z,1015.46
2019-02-24T01:54:01.866Z,1015.44
2019-02-24T01:55:02.499Z,1015.41
2019-02-24T01:57:16.734Z,1015.35
2019-02-24T01:58:11.895Z,1015.32
2019-02-24T01:59:10.420Z,1015.36
2019-02-24T02:00:10.380Z,1015.30
2019-02-24T02:01:10.140Z,1015.27
2019-02-24T02:03:33.050Z,1015.26
2019-02-24T02:04:09.810Z,1015.25
2019-02-24T02:06:11.676Z,1015.28
2019-02-24T02:07:11.737Z,1015.26
2019-02-24T02:12:11.188Z,1015.28
2019-02-24T02:15:30.834Z,1015.20
2019-02-24T02:16:15.822Z,1015.21
2019-02-24T02:17:15.036Z,1015.20
2019-02-24T02:18:10.715Z,1015.19
2019-02-24T02:19:09.738Z,1015.18
2019-02-24T02:20:10.280Z,1015.17
2019-02-24T02:22:17.430Z,1015.14
2019-02-24T02:24:04.022Z,1015.18
2019-02-24T02:25:03.939Z,1015.18
2019-02-24T02:27:11.349Z,1015.22
2019-02-24T02:28:10.418Z,1015.27
2019-02-24T02:29:09.890Z,1015.23
2019-02-24T02:30:09.935Z,1015.25
2019-02-24T02:31:10.336Z,1015.25
2019-02-24T02:32:09.950Z,1015.21
2019-02-24T02:33:11.158Z,1015.18
2019-02-24T02:34:09.689Z,1015.18
2019-02-24T02:35:10.402Z,1015.15
2019-02-24T02:36:09.686Z,1015.19
2019-02-24T02:37:12.494Z,1015.22
2019-02-24T02:39:50.424Z,1015.15
2019-02-24T02:42:16.152Z,1015.08
2019-02-24T02:43:19.025Z,1015.14
2019-02-24T02:44:15.862Z,1015.11
2019-02-24T02:45:14.899Z,1015.11
2019-02-24T02:46:14.234Z,1015.07
2019-02-24T02:47:14.273Z,1015.09
2019-02-24T02:48:14.598Z,1015.04
2019-02-24T02:53:02.122Z,1015.00
2019-02-24T02:54:01.852Z,1015.00
2019-02-24T02:55:04.626Z,1014.97
2019-02-24T02:56:03.729Z,1014.99
2019-02-24T02:57:01.860Z,1014.95
2019-02-24T03:01:03.384Z,1014.94
2019-02-24T03:02:04.980Z,1014.95
2019-02-24T03:03:02.220Z,1014.94
2019-02-24T03:04:02.213Z,1014.91
2019-02-24T03:05:02.196Z,1014.91
2019-02-24T03:06:16.967Z,1014.88
2019-02-24T03:07:02.151Z,1014.93
2019-02-24T03:08:01.936Z,1014.85
2019-02-24T03:09:02.053Z,1014.83
2019-02-24T03:10:02.840Z,1014.78
2019-02-24T03:11:01.941Z,1014.74
2019-02-24T03:12:02.986Z,1014.72
2019-02-24T03:13:01.999Z,1014.73
2019-02-24T03:14:02.026Z,1014.67
2019-02-24T03:15:01.980Z,1014.63
2019-02-24T03:16:01.923Z,1014.58
2019-02-24T03:17:04.539Z,1014.66
2019-02-24T03:18:01.840Z,1014.60
2019-02-24T03:19:01.983Z,1014.55
2019-02-24T03:20:02.435Z,1014.55
2019-02-24T03:21:16.595Z,1014.48
2019-02-24T03:22:02.442Z,1014.50
2019-02-24T03:23:04.526Z,1014.47
2019-02-24T03:24:01.854Z,1014.49
2019-02-24T03:25:03.508Z,1014.51
2019-02-24T03:26:02.458Z,1014.48
2019-02-24T03:27:01.815Z,1014.41
2019-02-24T03:28:01.738Z,1014.42
2019-02-24T03:29:04.433Z,1014.40
2019-02-24T03:30:01.784Z,1014.43
2019-02-24T03:31:02.454Z,1014.43
2019-02-24T03:32:02.651Z,1014.46
2019-02-24T03:33:01.654Z,1014.48
2019-02-24T03:34:01.549Z,1014.44
2019-02-24T03:35:03.343Z,1014.45
2019-02-24T03:36:01.561Z,1014.47
2019-02-24T03:37:01.553Z,1014.47
2019-02-24T03:38:01.499Z,1014.41
2019-02-24T03:39:01.474Z,1014.45
2019-02-24T03:40:01.495Z,1014.47
2019-02-24T03:41:01.930Z,1014.46
2019-02-24T03:42:01.448Z,1014.50
2019-02-24T03:43:01.552Z,1014.52
2019-02-24T03:44:02.015Z,1014.44
2019-02-24T03:45:01.391Z,1014.46
2019-02-24T03:46:01.442Z,1014.42
2019-02-24T03:47:06.022Z,1014.43
2019-02-24T03:48:01.522Z,1014.37
2019-02-24T03:49:08.167Z,1014.41
2019-02-24T03:50:01.393Z,1014.39
2019-02-24T03:51:02.860Z,1014.37
2019-02-24T03:52:01.349Z,1014.33
2019-02-24T03:53:01.202Z,1014.31
2019-02-24T03:54:01.218Z,1014.29
2019-02-24T03:55:02.106Z,1014.29
2019-02-24T03:56:01.316Z,1014.31
2019-02-24T03:57:02.994Z,1014.31
2019-02-24T03:58:01.236Z,1014.22
2019-02-24T03:59:01.204Z,1014.25
2019-02-24T04:00:01.002Z,1014.23
2019-02-24T04:01:01.334Z,1014.23
2019-02-24T04:02:01.147Z,1014.22
2019-02-24T04:03:02.171Z,1014.21
2019-02-24T04:04:00.990Z,1014.22
2019-02-24T04:05:01.060Z,1014.19
2019-02-24T04:06:01.085Z,1014.22
2019-02-24T04:07:03.127Z,1014.20
2019-02-24T04:08:01.026Z,1014.22
2019-02-24T04:09:01.432Z,1014.24
2019-02-24T04:10:01.390Z,1014.29
2019-02-24T04:11:00.868Z,1014.25
2019-02-24T04:12:00.912Z,1014.27
2019-02-24T04:13:01.459Z,1014.28
2019-02-24T04:14:01.545Z,1014.31
2019-02-24T04:15:02.418Z,1014.27
2019-02-24T04:16:00.863Z,1014.22
2019-02-24T04:17:00.785Z,1014.18
2019-02-24T04:18:00.677Z,1014.19
2019-02-24T04:19:01.418Z,1014.21
2019-02-24T04:20:00.841Z,1014.20
2019-02-24T04:21:02.412Z,1014.21
2019-02-24T04:22:00.677Z,1014.13
2019-02-24T04:24:01.444Z,1014.09
2019-02-24T04:25:00.792Z,1014.13
2019-02-24T04:26:01.474Z,1014.07
2019-02-24T04:28:00.507Z,1014.08
2019-02-24T04:29:00.557Z,1014.09
2019-02-24T04:30:00.563Z,1014.08
2019-02-24T04:31:00.548Z,1013.98
2019-02-24T04:32:01.434Z,1013.96
2019-02-24T04:33:00.440Z,1013.93
2019-02-24T04:34:00.568Z,1013.77
2019-02-24T04:35:03.021Z,1013.90
2019-02-24T04:36:00.485Z,1013.86
2019-02-24T04:37:01.015Z,1013.81
2019-02-24T04:38:00.362Z,1013.80
2019-02-24T04:39:01.928Z,1013.76
2019-02-24T04:40:00.442Z,1013.73
2019-02-24T04:41:00.291Z,1013.72
2019-02-24T04:42:00.328Z,1013.67
2019-02-24T04:43:02.907Z,1013.70
2019-02-24T04:44:00.434Z,1013.64
2019-02-24T04:45:01.874Z,1013.64
2019-02-24T04:46:00.338Z,1013.65
2019-02-24T04:47:00.388Z,1013.68
2019-02-24T04:48:01.031Z,1013.66
2019-02-24T04:49:07.163Z,1013.66
2019-02-24T04:50:05.086Z,1013.65
2019-02-24T04:51:00.366Z,1013.68
2019-02-24T04:52:00.956Z,1013.72
2019-02-24T04:53:03.109Z,1013.76
2019-02-24T04:54:00.918Z,1013.68
2019-02-24T04:55:00.660Z,1013.75
2019-02-24T04:56:06.955Z,1013.74
2019-02-24T04:57:01.992Z,1013.68
2019-02-24T04:58:00.052Z,1013.76
2019-02-24T04:58:59.989Z,1013.83
2019-02-24T05:00:02.027Z,1013.85
2019-02-24T05:01:00.162Z,1013.85
2019-02-24T05:02:20.996Z,1013.90
2019-02-24T05:03:00.872Z,1013.89
2019-02-24T05:04:00.004Z,1013.88
2019-02-24T05:04:59.846Z,1013.86
2019-02-24T05:05:59.809Z,1013.76
2019-02-24T05:06:59.894Z,1013.83
2019-02-24T05:08:00.097Z,1013.80
2019-02-24T05:08:59.945Z,1013.78
2019-02-24T05:09:59.767Z,1013.82
2019-02-24T05:10:59.905Z,1013.80
2019-02-24T05:11:59.754Z,1013.77
2019-02-24T05:13:01.564Z,1013.75
2019-02-24T05:14:00.406Z,1013.79
2019-02-24T05:14:59.906Z,1013.71
2019-02-24T05:15:59.731Z,1013.68
2019-02-24T05:16:59.620Z,1013.67
2019-02-24T05:17:59.841Z,1013.70
2019-02-24T05:18:59.726Z,1013.59
2019-02-24T05:20:02.425Z,1013.59
2019-02-24T05:20:59.826Z,1013.57
2019-02-24T05:22:22.339Z,1013.54
2019-02-24T05:23:01.608Z,1013.49
2019-02-24T05:24:00.529Z,1013.56
2019-02-24T05:25:01.442Z,1013.47
2019-02-24T05:26:01.402Z,1013.47
2019-02-24T05:27:00.532Z,1013.48
2019-02-24T05:28:01.432Z,1013.45
2019-02-24T05:28:59.487Z,1013.42
2019-02-24T05:30:00.040Z,1013.42
2019-02-24T05:31:01.869Z,1013.46
2019-02-24T05:31:59.477Z,1013.43
2019-02-24T05:32:59.499Z,1013.45
2019-02-24T05:34:02.008Z,1013.47
2019-02-24T05:34:59.742Z,1013.46
2019-02-24T05:36:00.978Z,1013.54
2019-02-24T05:36:59.320Z,1013.55
2019-02-24T05:37:59.890Z,1013.55
2019-02-24T05:38:59.369Z,1013.56
2019-02-24T05:39:59.245Z,1013.55
2019-02-24T05:40:59.400Z,1013.56
2019-02-24T05:42:00.034Z,1013.59
2019-02-24T05:42:59.321Z,1013.60
2019-02-24T05:44:00.016Z,1013.57
2019-02-24T05:44:59.895Z,1013.55
2019-02-24T05:46:04.008Z,1013.58
2019-02-24T05:46:59.041Z,1013.50
2019-02-24T05:48:00.945Z,1013.46
2019-02-24T05:48:59.052Z,1013.44
2019-02-24T05:49:59.132Z,1013.44
2019-02-24T05:50:59.164Z,1013.41
2019-02-24T05:52:00.988Z,1013.38
2019-02-24T05:52:59.952Z,1013.37
2019-02-24T05:53:59.083Z,1013.28
2019-02-24T05:54:58.945Z,1013.27
2019-02-24T05:55:59.010Z,1013.26
2019-02-24T05:57:59.068Z,1013.17
2019-02-24T05:58:58.993Z,1013.12
2019-02-24T05:59:59.627Z,1013.07
2019-02-24T06:01:03.482Z,1012.99
2019-02-24T06:01:59.625Z,1012.94
2019-02-24T06:03:01.468Z,1012.82
2019-02-24T06:04:00.472Z,1012.85
2019-02-24T06:04:58.843Z,1012.87
2019-02-24T06:05:58.988Z,1012.88
2019-02-24T06:06:58.743Z,1012.86
2019-02-24T06:07:58.904Z,1012.84
2019-02-24T06:09:01.545Z,1012.81
2019-02-24T06:09:58.796Z,1012.79
2019-02-24T06:10:58.802Z,1012.78
2019-02-24T06:11:59.454Z,1012.78
2019-02-24T06:13:01.559Z,1012.72
2019-02-24T06:13:59.559Z,1012.73
2019-02-24T06:14:59.509Z,1012.69
2019-02-24T06:15:58.604Z,1012.67
2019-02-24T06:16:58.678Z,1012.57
2019-02-24T06:17:58.498Z,1012.53
2019-02-24T06:18:58.572Z,1012.50
2019-02-24T06:19:58.532Z,1012.46
2019-02-24T06:20:59.464Z,1012.46
2019-02-24T06:21:58.686Z,1012.42
2019-02-24T06:22:58.693Z,1012.41
2019-02-24T06:23:58.617Z,1012.41
2019-02-24T06:24:58.583Z,1012.39
2019-02-24T06:25:58.489Z,1012.37
2019-02-24T06:27:01.064Z,1012.37
2019-02-24T06:27:59.957Z,1012.37
2019-02-24T06:30:04.508Z,1012.44
2019-02-24T06:30:58.512Z,1012.42
2019-02-24T06:31:58.912Z,1012.40
2019-02-24T06:32:59.026Z,1012.44
2019-02-24T06:33:58.433Z,1012.41
2019-02-24T06:34:58.370Z,1012.40
2019-02-24T06:35:58.346Z,1012.39
2019-02-24T06:36:59.092Z,1012.32
2019-02-24T06:37:58.533Z,1012.30
2019-02-24T06:38:58.930Z,1012.34
2019-02-24T06:39:58.988Z,1012.31
2019-02-24T06:40:59.857Z,1012.33
2019-02-24T06:41:59.043Z,1012.27
2019-02-24T06:42:58.286Z,1012.32
2019-02-24T06:43:58.181Z,1012.28
2019-02-24T06:44:58.183Z,1012.21
2019-02-24T06:45:58.222Z,1012.23
2019-02-24T06:46:58.368Z,1012.18
2019-02-24T06:47:58.202Z,1012.24
2019-02-24T06:48:58.908Z,1012.22
2019-02-24T06:50:03.100Z,1012.14
2019-02-24T06:50:58.554Z,1012.22
2019-02-24T06:52:00.014Z,1012.12
2019-02-24T06:53:58.969Z,1012.09
2019-02-24T06:55:02.540Z,1012.03
2019-02-24T06:55:58.023Z,1012.08
2019-02-24T06:56:58.027Z,1012.18
2019-02-24T06:57:57.949Z,1012.18
2019-02-24T06:58:57.873Z,1012.15
2019-02-24T06:59:57.789Z,1012.17
2019-02-24T07:00:57.923Z,1012.21
2019-02-24T07:01:57.813Z,1012.15
2019-02-24T07:03:58.384Z,1012.24
2019-02-24T07:05:00.527Z,1012.28
2019-02-24T07:05:59.656Z,1012.38
2019-02-24T07:06:57.616Z,1012.32
2019-02-24T07:07:58.549Z,1012.28
2019-02-24T07:08:57.930Z,1012.30
2019-02-24T07:09:57.739Z,1012.27
2019-02-24T07:10:57.786Z,1012.24
2019-02-24T07:11:58.710Z,1012.29
2019-02-24T07:12:57.702Z,1012.27
2019-02-24T07:14:00.549Z,1012.31
2019-02-24T07:14:57.598Z,1012.25
2019-02-24T07:15:57.554Z,1012.11
2019-02-24T07:16:57.629Z,1012.09
2019-02-24T07:17:57.661Z,1012.12
2019-02-24T07:18:59.575Z,1012.16
2019-02-24T07:19:57.640Z,1012.13
2019-02-24T07:20:57.766Z,1012.14
2019-02-24T07:21:57.416Z,1012.02
2019-02-24T07:22:57.457Z,1012.02
2019-02-24T07:24:02.215Z,1011.95
2019-02-24T07:24:57.372Z,1012.01
2019-02-24T07:25:58.017Z,1011.97
2019-02-24T07:26:57.400Z,1011.88
2019-02-24T07:28:00.211Z,1011.88
2019-02-24T07:28:59.110Z,1011.93
2019-02-24T07:29:57.340Z,1011.97
2019-02-24T07:30:57.261Z,1011.90
2019-02-24T07:31:57.612Z,1011.86
2019-02-24T07:32:57.362Z,1011.86
2019-02-24T07:33:57.251Z,1011.87
2019-02-24T07:34:58.025Z,1011.93
2019-02-24T07:36:00.073Z,1011.91
2019-02-24T07:36:57.394Z,1011.92
2019-02-24T07:38:04.024Z,1012.02
2019-02-24T07:38:58.186Z,1011.93
2019-02-24T07:39:57.185Z,1011.85
2019-02-24T07:40:57.946Z,1011.85
2019-02-24T07:41:57.213Z,1011.82
2019-02-24T07:42:57.153Z,1011.67
2019-02-24T07:43:57.749Z,1011.72
2019-02-24T07:45:57.164Z,1011.80
2019-02-24T07:46:57.035Z,1011.85
2019-02-24T07:47:57.911Z,1011.94
2019-02-24T07:49:08.198Z,1011.97
2019-02-24T07:49:56.878Z,1011.88
2019-02-24T07:50:57.182Z,1011.83
2019-02-24T07:52:03.601Z,1011.86
2019-02-24T07:52:57.982Z,1011.86
2019-02-24T07:53:57.594Z,1011.88
2019-02-24T07:54:57.078Z,1011.92
2019-02-24T07:55:57.030Z,1011.82
2019-02-24T07:56:57.011Z,1011.80
2019-02-24T07:57:56.947Z,1011.71
2019-02-24T07:59:04.688Z,1011.69
2019-02-24T08:02:10.892Z,1011.62
2019-02-24T08:03:09.419Z,1011.60
2019-02-24T08:04:10.355Z,1011.59
2019-02-24T08:05:23.304Z,1011.52
2019-02-24T08:06:11.298Z,1011.53
2019-02-24T08:07:08.485Z,1011.56
2019-02-24T08:08:16.211Z,1011.54
2019-02-24T08:09:11.251Z,1011.45
2019-02-24T08:10:09.254Z,1011.38
2019-02-24T08:11:10.300Z,1011.34
2019-02-24T08:12:09.705Z,1011.34
2019-02-24T08:13:11.271Z,1011.44
2019-02-24T08:14:08.398Z,1011.40
2019-02-24T08:15:08.605Z,1011.43
2019-02-24T08:16:08.424Z,1011.53
2019-02-24T08:17:08.358Z,1011.53
2019-02-24T08:18:10.780Z,1011.57
2019-02-24T08:19:08.966Z,1011.59
2019-02-24T08:20:08.320Z,1011.61
2019-02-24T08:21:08.318Z,1011.60
2019-02-24T08:22:08.395Z,1011.59
2019-02-24T08:23:08.214Z,1011.58
2019-02-24T08:24:08.725Z,1011.61
2019-02-24T08:25:08.210Z,1011.65
2019-02-24T08:26:08.296Z,1011.59
2019-02-24T08:27:08.117Z,1011.52
2019-02-24T08:28:14.911Z,1011.53
2019-02-24T08:29:08.278Z,1011.45
2019-02-24T08:30:08.402Z,1011.43
2019-02-24T08:31:08.235Z,1011.42
2019-02-24T08:32:08.028Z,1011.39
2019-02-24T08:33:12.873Z,1011.34
2019-02-24T08:34:07.907Z,1011.29
2019-02-24T08:35:09.735Z,1011.29
2019-02-24T08:36:08.108Z,1011.28
2019-02-24T08:37:08.016Z,1011.32
2019-02-24T08:39:08.066Z,1011.24
2019-02-24T08:40:09.038Z,1011.27
2019-02-24T08:41:07.983Z,1011.15
2019-02-24T08:42:09.907Z,1011.28
2019-02-24T08:43:08.826Z,1011.17
2019-02-24T08:44:07.964Z,1011.18
2019-02-24T08:45:07.851Z,1011.13
2019-02-24T08:46:07.889Z,1010.99
2019-02-24T08:47:08.387Z,1011.04
2019-02-24T08:48:07.775Z,1011.10
2019-02-24T08:49:07.913Z,1011.14
2019-02-24T08:50:08.439Z,1011.11
2019-02-24T08:51:07.601Z,1011.08
2019-02-24T08:52:07.802Z,1011.05
2019-02-24T08:53:07.807Z,1011.05
2019-02-24T08:54:08.327Z,1011.08
2019-02-24T08:55:09.393Z,1011.06
2019-02-24T08:56:07.683Z,1011.05
2019-02-24T08:57:09.516Z,1010.99
2019-02-24T08:58:09.305Z,1011.01
2019-02-24T08:59:09.308Z,1010.99
2019-02-24T09:00:09.378Z,1010.93
2019-02-24T09:01:08.347Z,1010.87
2019-02-24T09:02:09.679Z,1010.71
2019-02-24T09:03:29.425Z,1010.73
2019-02-24T09:04:12.478Z,1010.73
2019-02-24T09:05:08.415Z,1010.70
2019-02-24T09:06:08.434Z,1010.69
2019-02-24T09:07:28.585Z,1010.82
2019-02-24T09:08:08.462Z,1010.77
2019-02-24T09:09:10.233Z,1010.75
2019-02-24T09:10:07.355Z,1010.75
2019-02-24T09:11:07.506Z,1010.81
2019-02-24T09:12:09.436Z,1010.85
2019-02-24T09:13:07.532Z,1010.82
2019-02-24T09:14:07.335Z,1010.96
2019-02-24T09:15:07.807Z,1010.81
2019-02-24T09:16:09.851Z,1010.61
2019-02-24T09:18:07.425Z,1010.51
2019-02-24T09:20:07.283Z,1010.61
2019-02-24T09:21:07.215Z,1010.59
2019-02-24T09:22:08.020Z,1010.66
2019-02-24T09:23:07.188Z,1010.62
2019-02-24T09:24:18.041Z,1010.71
2019-02-24T09:26:36.447Z,1010.80
2019-02-24T09:27:09.058Z,1010.67
2019-02-24T09:28:07.023Z,1010.57
2019-02-24T09:29:07.077Z,1010.56
2019-02-24T09:30:07.939Z,1010.61
2019-02-24T09:32:07.113Z,1010.60
2019-02-24T09:33:07.083Z,1010.61
2019-02-24T09:34:30.880Z,1010.51
2019-02-24T09:35:08.879Z,1010.53
2019-02-24T09:36:07.912Z,1010.41
2019-02-24T09:37:07.781Z,1010.37
2019-02-24T09:38:06.969Z,1010.43
2019-02-24T09:39:07.142Z,1010.36
2019-02-24T09:41:07.057Z,1010.38
2019-02-24T09:42:12.102Z,1010.44
2019-02-24T09:43:06.878Z,1010.29
2019-02-24T09:44:06.907Z,1010.31
2019-02-24T09:45:21.470Z,1010.32
2019-02-24T09:46:06.828Z,1010.31
2019-02-24T09:47:07.428Z,1010.29
2019-02-24T09:48:06.780Z,1010.23
2019-02-24T09:49:06.796Z,1010.15
2019-02-24T09:50:06.668Z,1010.13
2019-02-24T09:51:07.548Z,1010.08
2019-02-24T09:52:06.897Z,1010.00
2019-02-24T09:53:09.410Z,1009.96
2019-02-24T09:54:08.353Z,1010.00
2019-02-24T09:55:21.397Z,1009.98
2019-02-24T09:56:07.022Z,1010.05
2019-02-24T09:57:06.562Z,1010.11
2019-02-24T09:58:06.777Z,1010.14
2019-02-24T09:59:08.369Z,1010.20
2019-02-24T10:00:09.409Z,1010.13
2019-02-24T10:01:13.357Z,1010.13
2019-02-24T10:02:08.321Z,1010.10
2019-02-24T10:03:07.415Z,1010.06
2019-02-24T10:04:06.647Z,1010.05
2019-02-24T10:05:11.459Z,1010.01
2019-02-24T10:06:06.766Z,1009.95
2019-02-24T10:07:08.355Z,1010.02
2019-02-24T10:08:08.108Z,1010.07
2019-02-24T10:09:06.292Z,1010.30
2019-02-24T10:10:09.377Z,1010.25
2019-02-24T10:11:06.386Z,1010.30
2019-02-24T10:12:06.514Z,1010.24
2019-02-24T10:13:06.565Z,1010.32
2019-02-24T10:14:33.990Z,1010.28
2019-02-24T10:15:06.510Z,1010.31
2019-02-24T10:17:12.996Z,1010.38
2019-02-24T10:19:31.241Z,1010.08
2019-02-24T10:21:31.442Z,1009.76
2019-02-24T10:22:30.017Z,1009.75
2019-02-24T10:23:31.369Z,1009.72
2019-02-24T10:24:31.205Z,1009.65
2019-02-24T10:25:31.377Z,1009.59
2019-02-24T10:26:29.709Z,1009.66
2019-02-24T10:28:29.539Z,1009.63
2019-02-24T10:29:31.467Z,1009.69
2019-02-24T10:30:31.457Z,1009.71
2019-02-24T10:31:29.764Z,1009.67
2019-02-24T10:32:29.628Z,1009.46
2019-02-24T10:33:31.314Z,1009.55
2019-02-24T10:34:29.414Z,1009.50
2019-02-24T10:35:29.581Z,1009.45
2019-02-24T10:36:31.322Z,1009.55
2019-02-24T10:37:29.459Z,1009.53
2019-02-24T10:38:31.926Z,1009.54
2019-02-24T10:39:31.442Z,1009.48
2019-02-24T10:40:29.534Z,1009.52
2019-02-24T10:41:29.398Z,1009.46
2019-02-24T10:42:30.386Z,1009.50
2019-02-24T10:43:29.406Z,1009.49
2019-02-24T10:44:31.296Z,1009.45
2019-02-24T10:45:29.487Z,1009.36
2019-02-24T10:46:29.439Z,1009.40
2019-02-24T10:47:29.472Z,1009.27
2019-02-24T10:49:29.298Z,1009.25
2019-02-24T10:50:29.148Z,1009.20
2019-02-24T10:51:29.292Z,1009.18
2019-02-24T10:52:30.652Z,1009.24
2019-02-24T10:53:29.109Z,1009.33
2019-02-24T10:54:29.275Z,1009.17
2019-02-24T10:55:29.134Z,1009.06
2019-02-24T10:56:29.029Z,1009.12
2019-02-24T10:57:29.167Z,1009.16
2019-02-24T10:58:34.698Z,1009.18
2019-02-24T10:59:28.994Z,1009.07
2019-02-24T11:00:28.997Z,1009.05
2019-02-24T11:02:28.964Z,1009.08
2019-02-24T11:03:29.112Z,1009.13
2019-02-24T11:04:28.966Z,1009.07
2019-02-24T11:05:28.932Z,1009.07
2019-02-24T11:06:31.035Z,1009.05
2019-02-24T11:09:51.039Z,1009.01
2019-02-24T11:10:49.024Z,1009.03
2019-02-24T11:13:02.623Z,1008.98
2019-02-24T11:13:43.882Z,1009.10
2019-02-24T11:15:34.002Z,1008.96
2019-02-24T11:16:33.978Z,1008.86
2019-02-24T11:19:46.561Z,1008.70
2019-02-24T11:20:45.924Z,1008.53
2019-02-24T11:24:14.562Z,1008.54
2019-02-24T11:25:07.309Z,1008.65
2019-02-24T11:27:12.213Z,1008.69
2019-02-24T11:28:00.599Z,1008.59
2019-02-24T11:29:00.680Z,1008.64
2019-02-24T11:30:00.579Z,1008.68
2019-02-24T11:31:02.095Z,1008.72
2019-02-24T11:33:02.225Z,1008.75
2019-02-24T11:34:00.501Z,1008.69
2019-02-24T11:35:00.449Z,1008.71
2019-02-24T11:38:21.400Z,1008.58
2019-02-24T11:39:21.475Z,1008.56
2019-02-24T11:40:21.305Z,1008.56
2019-02-24T11:41:21.362Z,1008.53
2019-02-24T11:42:22.461Z,1008.56
2019-02-24T11:43:20.735Z,1008.59
2019-02-24T11:44:20.707Z,1008.69
2019-02-24T11:45:21.585Z,1008.62
2019-02-24T11:46:35.504Z,1008.69
2019-02-24T11:47:20.817Z,1008.76
2019-02-24T11:48:20.605Z,1008.64
2019-02-24T11:49:21.501Z,1008.60
2019-02-24T11:50:20.850Z,1008.55
2019-02-24T11:51:20.791Z,1008.51
2019-02-24T11:52:21.482Z,1008.58
2019-02-24T11:53:20.747Z,1008.44
2019-02-24T11:54:20.574Z,1008.47
2019-02-24T11:55:41.455Z,1008.52
2019-02-24T11:56:20.481Z,1008.42
2019-02-24T11:57:22.605Z,1008.39
2019-02-24T11:58:20.456Z,1008.40
2019-02-24T11:59:20.512Z,1008.33
2019-02-24T12:00:35.379Z,1008.40
2019-02-24T12:01:23.358Z,1008.25
2019-02-24T12:02:20.378Z,1008.34
2019-02-24T12:03:21.448Z,1008.35
2019-02-24T12:04:20.909Z,1008.30
2019-02-24T12:05:20.755Z,1008.25
2019-02-24T12:06:20.383Z,1008.37
2019-02-24T12:07:24.927Z,1008.37
2019-02-24T12:08:20.554Z,1008.43
2019-02-24T12:09:20.262Z,1008.42
2019-02-24T12:10:22.939Z,1008.42
2019-02-24T12:11:20.315Z,1008.41
2019-02-24T12:12:24.975Z,1008.44
2019-02-24T12:13:20.277Z,1008.47
2019-02-24T12:14:20.313Z,1008.45
2019-02-24T12:15:20.289Z,1008.41
2019-02-24T12:16:20.228Z,1008.39
2019-02-24T12:17:20.163Z,1008.32
2019-02-24T12:18:20.349Z,1008.44
2019-02-24T12:19:20.306Z,1008.46
2019-02-24T12:23:08.829Z,1008.36
2019-02-24T12:24:04.227Z,1008.31
2019-02-24T12:25:01.022Z,1008.35
2019-02-24T12:26:01.080Z,1008.28
2019-02-24T12:27:01.733Z,1008.36
2019-02-24T12:28:00.939Z,1008.32
2019-02-24T12:29:01.967Z,1008.25
2019-02-24T12:30:01.038Z,1008.26
2019-02-24T12:31:01.887Z,1008.27
2019-02-24T12:32:00.823Z,1008.29
2019-02-24T12:33:02.789Z,1008.27
2019-02-24T12:35:00.865Z,1008.20
2019-02-24T12:36:00.843Z,1008.31
2019-02-24T12:37:00.875Z,1008.15
2019-02-24T12:38:00.861Z,1008.18
2019-02-24T12:40:01.236Z,1008.26
2019-02-24T12:41:05.320Z,1008.27
2019-02-24T12:42:01.389Z,1008.16
2019-02-24T12:43:00.691Z,1008.21
2019-02-24T12:44:00.638Z,1008.24
2019-02-24T12:45:01.317Z,1008.12
2019-02-24T12:46:00.543Z,1008.18
2019-02-24T12:47:00.806Z,1008.15
2019-02-24T12:48:02.207Z,1008.13
2019-02-24T12:49:00.740Z,1008.12
2019-02-24T12:50:03.101Z,1008.17
2019-02-24T12:51:00.803Z,1008.11
2019-02-24T12:53:00.598Z,1008.03
2019-02-24T12:54:05.449Z,1008.06
2019-02-24T12:55:00.475Z,1007.96
2019-02-24T12:56:00.493Z,1007.92
2019-02-24T12:57:00.374Z,1007.90
2019-02-24T12:58:01.363Z,1007.92
2019-02-24T12:59:00.545Z,1007.98
2019-02-24T13:00:00.365Z,1007.95
2019-02-24T13:01:02.283Z,1008.01
2019-02-24T13:02:05.721Z,1008.07
2019-02-24T13:03:00.400Z,1008.00
2019-02-24T13:04:00.394Z,1008.04
2019-02-24T13:05:23.637Z,1008.19
2019-02-24T13:06:00.388Z,1008.24
2019-02-24T13:07:00.356Z,1008.26
2019-02-24T13:08:00.832Z,1008.31
2019-02-24T13:09:02.272Z,1008.24
2019-02-24T13:10:00.268Z,1008.18
2019-02-24T13:11:00.199Z,1008.23
2019-02-24T13:12:00.719Z,1008.21
2019-02-24T13:13:00.190Z,1008.18
2019-02-24T13:14:21.801Z,1008.11
2019-02-24T13:15:00.294Z,1008.14
2019-02-24T13:16:00.143Z,1008.19
2019-02-24T13:17:02.957Z,1008.15
2019-02-24T13:18:02.632Z,1008.19
2019-02-24T13:19:00.769Z,1008.04
2019-02-24T13:20:00.201Z,1008.06
2019-02-24T13:21:00.888Z,1008.15
2019-02-24T13:22:00.108Z,1008.11
2019-02-24T13:23:00.778Z,1008.11
2019-02-24T13:24:00.009Z,1008.17
2019-02-24T13:25:02.871Z,1008.20
2019-02-24T13:25:59.875Z,1008.19
2019-02-24T13:27:00.227Z,1008.13
2019-02-24T13:27:59.857Z,1008.10
2019-02-24T13:28:59.960Z,1008.12
2019-02-24T13:30:03.063Z,1008.13
2019-02-24T13:31:20.985Z,1008.18
2019-02-24T13:31:59.858Z,1008.12
2019-02-24T13:32:59.897Z,1008.16